Marlborough, Massachusetts
Current Conditions -  °F | °C
As of 7:56 AM on Monday 22 Dec 2014 (Local Time) from KBED Reporting Station
Overcast Overcast  
Wind Chill: 27°   Ceiling: 1200
Heat Index: 32°   Visibility: 10mi
Dew Point: 26°   Wind: 5mph
Humidity: 79%   Direction: 350°N
Pressure: 30.38"   Gusts: NA
Location:  42.35°N, 71.55°W
Report Text: KBED 221256Z 35004KT 10SM OVC012 00/M03 A3038 RMK AO2 SLP303 T00001033
Loading
Personal Weather Stations






























Interactive Weather Map New forecast layout! Learn more

10-Day Weather Forecast

Advertisements
Track Severe Weather on mobile